< < Back
Terminal Aerodrome Forecast


Current Version              Previous Versions:   1  2  3  4  5  6  7  8  9  

Terminal Aerodrome Forecast

183
FTUS42 KCAE 300200 AAA
TAFAGS
TAF AMD
KAGS 300226Z 3002/3024 VRB05KT P6SM SCT080=



Latest METAR

050
SAUS70 KWBC 301100 RRD
MTRAGS
METAR KAGS 301053Z COR 01005KT 10SM SCT080 20/15 A2999 RMK AO2 SLP153
T02000150


USA.gov is the U.S. government's official web portal to all federal, state and local government web resources and services.